Time;durP1;ratioP1;P1;durP2;ratioP2;P2;SDS_P1;SDS_P2;PMS_P1;PMS_P2;Temp;Humidity;BMP_temperature;BMP_pressure;BME280_temperature;BME280_humidity;BME280_pressure;Samples;Min_cycle;Max_cycle;Signal;HPM_P1;HPM_P2
2023/08/12 00:01:21;;;;;;;1.10;0.82;;;;;;;23.12;50.65;100016.69;5010916;28;20483;-84
2023/08/12 00:03:46;;;;;;;5.78;0.93;;;;;;;23.38;49.29;100057.25;5011202;28;20048;-84
2023/08/12 00:06:12;;;;;;;0.68;0.63;;;;;;;23.24;49.14;100037.44;5010601;28;20037;-83
2023/08/12 00:08:37;;;;;;;1.17;0.93;;;;;;;23.19;49.82;100033.31;5010955;28;20034;-84
2023/08/12 00:11:02;;;;;;;2.35;1.25;;;;;;;22.99;49.78;99991.50;5010462;28;20176;-84
2023/08/12 00:13:28;;;;;;;1.33;0.80;;;;;;;23.34;50.03;100056.59;5011165;28;20030;-83
2023/08/12 00:15:53;;;;;;;0.60;0.60;;;;;;;23.30;49.77;100051.50;5011103;28;20444;-84
2023/08/12 00:18:19;;;;;;;1.65;1.00;;;;;;;23.46;50.12;100076.47;5010679;28;20116;-84
2023/08/12 00:20:44;;;;;;;6.70;0.88;;;;;;;23.36;50.17;100054.66;5010626;28;20384;-83
2023/08/12 00:23:10;;;;;;;1.00;0.90;;;;;;;23.37;50.27;100045.63;5010920;28;20040;-83
2023/08/12 00:25:35;;;;;;;2.35;1.40;;;;;;;23.38;50.19;100060.81;5010595;28;20538;-84
2023/08/12 00:28:02;;;;;;;0.93;0.65;;;;;;;23.48;50.43;100077.25;5010833;28;20068;-84
2023/08/12 00:30:28;;;;;;;3.70;0.98;;;;;;;23.27;50.40;100054.38;5011204;28;20033;-83
2023/08/12 00:32:53;;;;;;;1.77;0.85;;;;;;;23.30;50.64;100075.72;5010273;28;20073;-83
2023/08/12 00:35:18;;;;;;;0.43;0.43;;;;;;;23.24;50.23;100068.88;5010854;28;20037;-83
2023/08/12 00:37:45;;;;;;;1.55;0.88;;;;;;;23.12;50.73;100081.25;5010472;28;20159;-84
2023/08/12 00:40:11;;;;;;;1.20;0.65;;;;;;;23.02;51.11;100055.84;5009857;28;20034;-83
2023/08/12 00:42:36;;;;;;;3.97;1.38;;;;;;;23.08;51.33;100068.94;5010226;28;20096;-84
2023/08/12 00:45:02;;;;;;;2.38;1.20;;;;;;;22.97;50.81;100080.34;5010581;28;20538;-84
2023/08/12 00:47:30;;;;;;;1.10;1.00;;;;;;;22.84;51.27;100052.44;5010142;28;20121;-84
2023/08/12 00:49:57;;;;;;;1.10;0.55;;;;;;;22.71;51.52;100033.50;5010330;28;20112;-87
2023/08/12 00:52:23;;;;;;;0.88;0.60;;;;;;;22.77;51.58;100061.84;5009776;28;20037;-84
2023/08/12 00:54:49;;;;;;;2.20;1.27;;;;;;;22.85;51.65;100071.19;5010085;28;20034;-84
2023/08/12 00:57:15;;;;;;;0.38;0.30;;;;;;;22.70;51.16;100040.69;5010711;28;20121;-84
2023/08/12 00:59:43;;;;;;;1.27;1.10;;;;;;;22.74;50.91;100048.56;5009735;28;20041;-85
2023/08/12 01:02:09;;;;;;;0.95;0.85;;;;;;;22.65;50.80;100069.69;5010520;28;20025;-84
2023/08/12 01:04:34;;;;;;;1.00;0.90;;;;;;;22.58;50.81;100062.94;5009264;28;20446;-84
2023/08/12 01:07:00;;;;;;;1.42;0.95;;;;;;;22.55;51.02;100073.00;5010163;28;20547;-83
2023/08/12 01:09:26;;;;;;;0.60;0.60;;;;;;;22.33;51.07;100039.31;5010244;28;20041;-84
2023/08/12 01:12:11;;;;;;;1.08;1.05;;;;;;;22.52;51.37;100071.34;5009806;28;20033;-84
2023/08/12 01:14:48;;;;;;;1.15;1.05;;;;;;;22.48;51.83;100051.00;5009981;28;20038;-85
2023/08/12 01:17:15;;;;;;;0.90;0.60;;;;;;;22.16;51.91;100033.06;5010553;28;20033;-83
2023/08/12 01:19:42;;;;;;;0.63;0.30;;;;;;;22.32;52.11;100065.34;5009635;28;20033;-83
2023/08/12 01:22:10;;;;;;;0.65;0.50;;;;;;;22.09;51.97;100061.25;5009603;28;20516;-84
2023/08/12 01:24:40;;;;;;;0.95;0.90;;;;;;;22.11;52.10;100069.22;5009562;28;20469;-83
2023/08/12 01:27:07;;;;;;;7.32;1.08;;;;;;;21.86;52.62;100043.78;5010101;28;20405;-82
2023/08/12 01:29:34;;;;;;;0.75;0.65;;;;;;;22.04;52.56;100041.84;5009986;28;20042;-84
2023/08/12 01:32:20;;;;;;;2.13;1.10;;;;;;;22.04;52.58;100032.91;5009079;28;20041;-83
2023/08/12 01:35:05;;;;;;;2.33;1.35;;;;;;;22.14;52.89;100056.47;5010289;28;20044;-83
2023/08/12 01:37:32;;;;;;;0.38;0.38;;;;;;;22.05;53.13;100045.41;5010027;28;20061;-82
2023/08/12 01:40:04;;;;;;;1.63;1.00;;;;;;;21.97;53.44;100041.34;5009620;28;20038;-83
2023/08/12 01:42:32;;;;;;;1.15;0.70;;;;;;;21.73;53.11;100002.44;5010143;28;20041;-84
2023/08/12 01:44:59;;;;;;;3.08;1.10;;;;;;;21.94;53.48;100056.75;5010015;28;20105;-85
2023/08/12 01:47:24;;;;;;;1.60;1.23;;;;;;;21.75;53.48;100019.31;5009878;28;20424;-84
2023/08/12 01:49:50;;;;;;;5.15;0.80;;;;;;;21.56;53.62;100004.25;5009291;28;20034;-85
2023/08/12 01:52:15;;;;;;;0.50;0.50;;;;;;;21.36;53.41;99994.59;5010206;28;20022;-85
2023/08/12 01:54:41;;;;;;;0.57;0.57;;;;;;;21.40;54.03;100043.59;5009549;28;20506;-84
2023/08/12 01:57:08;;;;;;;1.17;1.10;;;;;;;21.14;54.64;100036.97;5009894;28;20033;-82
2023/08/12 01:59:36;;;;;;;1.42;1.23;;;;;;;21.33;54.53;100075.25;5009942;28;20033;-82
2023/08/12 02:02:02;;;;;;;1.75;1.08;;;;;;;21.27;53.76;100055.00;5010010;28;20040;-83
2023/08/12 02:04:28;;;;;;;0.85;0.77;;;;;;;21.26;54.59;100071.16;5009612;28;20553;-91
2023/08/12 02:06:55;;;;;;;0.55;0.55;;;;;;;21.25;54.59;100070.28;5010685;28;20144;-84
2023/08/12 02:09:22;;;;;;;2.47;1.15;;;;;;;21.10;55.35;100068.41;5010212;28;20030;-85
2023/08/12 02:11:48;;;;;;;1.35;0.88;;;;;;;21.07;55.11;100026.56;5009977;28;20034;-86
2023/08/12 02:14:14;;;;;;;0.75;0.70;;;;;;;21.29;55.35;100068.31;5013907;28;20139;-85
2023/08/12 02:16:40;;;;;;;0.75;0.50;;;;;;;21.23;55.85;100066.81;5013381;28;20488;-87
2023/08/12 02:19:05;;;;;;;0.90;0.70;;;;;;;21.45;55.42;100069.22;5012560;28;20044;-84
2023/08/12 02:21:31;;;;;;;1.23;1.10;;;;;;;21.17;55.94;100044.84;5013323;28;20064;-82
2023/08/12 02:23:56;;;;;;;1.10;0.82;;;;;;;21.19;55.54;100069.75;5012337;28;20515;-82
2023/08/12 02:26:22;;;;;;;0.98;0.68;;;;;;;21.10;56.08;100057.69;5013684;28;20030;-82
2023/08/12 02:28:47;;;;;;;1.65;1.35;;;;;;;21.13;56.16;100065.56;5012832;28;20037;-81
2023/08/12 02:31:13;;;;;;;0.47;0.47;;;;;;;21.14;56.20;100096.81;5012821;28;20488;-81
2023/08/12 02:33:39;;;;;;;2.08;1.00;;;;;;;20.98;56.26;100059.22;5012608;28;20088;-81
2023/08/12 02:36:05;;;;;;;1.30;0.95;;;;;;;21.00;56.43;100061.81;5012731;28;20030;-81
2023/08/12 02:38:30;;;;;;;0.50;0.50;;;;;;;20.80;56.50;100044.94;5011704;28;20483;-81
2023/08/12 02:40:55;;;;;;;1.58;0.98;;;;;;;20.96;56.75;100079.00;5012866;28;20080;-80
2023/08/12 02:43:21;;;;;;;1.63;1.33;;;;;;;20.90;56.60;100066.81;5012539;28;20029;-81
2023/08/12 02:45:46;;;;;;;0.82;0.73;;;;;;;20.93;56.66;100070.19;5012936;28;20030;-81
2023/08/12 02:48:12;;;;;;;2.10;1.20;;;;;;;21.20;56.51;100095.63;5012012;28;20036;-80
2023/08/12 02:50:38;;;;;;;1.48;0.75;;;;;;;21.31;56.50;100095.06;5012393;28;20037;-81
2023/08/12 02:53:05;;;;;;;0.70;0.70;;;;;;;21.19;56.30;100075.13;5010609;28;20037;-80
2023/08/12 02:55:32;;;;;;;2.20;0.80;;;;;;;21.32;56.33;100096.78;5013080;28;20076;-81
2023/08/12 02:57:58;;;;;;;2.20;1.23;;;;;;;21.18;56.80;100079.63;5012617;28;20114;-80
2023/08/12 03:00:23;;;;;;;0.57;0.57;;;;;;;21.27;57.18;100094.34;5011794;28;20557;-79
2023/08/12 03:02:49;;;;;;;0.82;0.68;;;;;;;21.21;57.27;100065.16;5012570;28;20026;-80
2023/08/12 03:05:15;;;;;;;1.67;0.70;;;;;;;21.31;57.18;100079.84;5011722;28;20404;-79
2023/08/12 03:07:40;;;;;;;0.60;0.60;;;;;;;21.22;57.08;100046.31;5011113;28;20046;-79
2023/08/12 03:10:06;;;;;;;1.30;1.20;;;;;;;21.34;57.24;100062.72;5011922;28;20030;-81
2023/08/12 03:12:32;;;;;;;0.65;0.60;;;;;;;21.49;56.88;100075.34;5011397;28;20044;-83
2023/08/12 03:14:57;;;;;;;0.60;0.60;;;;;;;21.52;56.94;100082.31;5011912;28;20029;-80
2023/08/12 03:17:23;;;;;;;0.98;0.77;;;;;;;21.61;56.73;100085.41;5011898;28;20061;-80
2023/08/12 03:19:49;;;;;;;7.90;2.90;;;;;;;21.62;56.97;100103.22;5011504;28;20025;-80
2023/08/12 03:22:14;;;;;;;4.47;2.58;;;;;;;21.41;57.62;100078.41;5011180;28;20413;-80
2023/08/12 03:24:40;;;;;;;6.25;1.23;;;;;;;21.42;56.36;100092.66;5010597;28;20041;-81
2023/08/12 03:27:05;;;;;;;0.73;0.65;;;;;;;21.40;56.22;100083.84;5011158;28;20041;-80
2023/08/12 03:29:31;;;;;;;1.73;0.85;;;;;;;21.24;56.97;100081.97;5011038;28;20045;-81
2023/08/12 03:31:56;;;;;;;1.48;1.08;;;;;;;21.43;56.55;100092.59;5010755;28;20049;-81
2023/08/12 03:34:22;;;;;;;0.38;0.38;;;;;;;21.53;56.55;100089.44;5010388;28;20038;-81
2023/08/12 03:36:48;;;;;;;0.82;0.77;;;;;;;21.50;57.13;100105.72;5010469;28;20029;-81
2023/08/12 03:39:14;;;;;;;2.03;1.42;;;;;;;21.37;57.58;100092.06;5010649;28;20029;-79
2023/08/12 03:41:40;;;;;;;3.53;0.52;;;;;;;21.50;57.80;100103.03;5011448;28;20022;-80
2023/08/12 03:44:05;;;;;;;2.30;1.10;;;;;;;21.46;57.55;100080.84;5009885;28;20337;-80
2023/08/12 03:46:31;;;;;;;1.40;1.02;;;;;;;21.57;57.42;100093.69;5010935;28;20460;-80
2023/08/12 03:48:57;;;;;;;1.85;0.65;;;;;;;21.69;56.55;100103.78;5010884;28;20037;-81
2023/08/12 03:51:22;;;;;;;2.33;1.17;;;;;;;21.60;56.12;100097.06;5011440;28;20026;-80
2023/08/12 03:53:47;;;;;;;1.27;1.15;;;;;;;21.68;56.38;100114.59;5010527;28;20109;-80
2023/08/12 03:56:15;;;;;;;1.17;0.75;;;;;;;21.51;56.64;100077.94;5010811;28;20033;-81
2023/08/12 03:58:41;;;;;;;3.08;1.73;;;;;;;21.78;56.64;100115.81;5011084;28;20474;-85
2023/08/12 04:01:07;;;;;;;1.33;1.23;;;;;;;21.52;56.49;100072.47;5010123;28;20120;-81
2023/08/12 04:03:32;;;;;;;0.32;0.32;;;;;;;21.66;57.27;100108.41;5011351;28;20058;-80
2023/08/12 04:05:58;;;;;;;1.73;1.17;;;;;;;21.56;56.71;100079.41;5011061;28;20538;-81
2023/08/12 04:08:24;;;;;;;12.13;1.30;;;;;;;21.60;56.44;100080.13;5010113;28;20069;-80
2023/08/12 04:10:51;;;;;;;0.80;0.75;;;;;;;21.84;55.68;100122.66;5010337;28;20030;-81
2023/08/12 04:13:17;;;;;;;4.93;2.45;;;;;;;21.69;56.05;100127.03;5010411;28;20026;-81
2023/08/12 04:15:42;;;;;;;9.57;1.90;;;;;;;21.54;55.70;100097.41;4999978;28;20046;-83
2023/08/12 04:18:08;;;;;;;1.15;1.10;;;;;;;21.42;55.21;100080.09;5004414;28;20037;-82
2023/08/12 04:20:33;;;;;;;1.60;1.08;;;;;;;21.40;55.10;100070.44;5009696;28;20060;-81
2023/08/12 04:22:59;;;;;;;2.58;0.80;;;;;;;21.70;55.12;100112.69;5009007;28;20046;-81
2023/08/12 04:25:25;;;;;;;1.45;1.35;;;;;;;21.87;55.60;100123.34;5010219;28;20415;-81
2023/08/12 04:27:50;;;;;;;1.38;0.45;;;;;;;21.87;55.84;100098.31;5008192;28;20116;-79
2023/08/12 04:30:17;;;;;;;2.17;1.90;;;;;;;21.99;56.07;100128.03;5010149;28;20034;-81
2023/08/12 04:32:43;;;;;;;1.00;0.85;;;;;;;21.71;56.67;100104.53;5010544;28;20026;-81
2023/08/12 04:35:08;;;;;;;4.25;2.15;;;;;;;21.79;56.33;100114.88;5010103;28;20110;-81
2023/08/12 04:37:35;;;;;;;1.73;1.33;;;;;;;21.58;57.06;100122.25;5010146;28;20033;-82
2023/08/12 04:40:00;;;;;;;1.63;1.20;;;;;;;21.32;58.02;100111.09;5009010;28;20022;-82
2023/08/12 04:42:26;;;;;;;2.42;1.50;;;;;;;21.39;58.11;100127.72;5010217;28;20041;-81
2023/08/12 04:44:51;;;;;;;1.75;0.88;;;;;;;21.49;57.76;100134.38;5010098;28;20480;-81
2023/08/12 04:47:17;;;;;;;1.60;1.50;;;;;;;21.44;57.60;100106.88;5010093;28;20484;-81
2023/08/12 04:49:42;;;;;;;1.25;1.00;;;;;;;21.38;58.10;100108.09;5010613;28;20171;-86
2023/08/12 04:52:08;;;;;;;9.25;2.20;;;;;;;21.63;57.77;100126.44;5009189;28;20408;-81
2023/08/12 04:54:33;;;;;;;2.90;1.35;;;;;;;21.76;58.10;100125.78;5009779;28;20120;-87
2023/08/12 04:56:59;;;;;;;2.25;1.77;;;;;;;21.92;57.87;100137.41;5010027;28;20030;-85
2023/08/12 04:59:25;;;;;;;1.48;0.93;;;;;;;21.87;58.18;100133.22;5009939;28;20080;-86
2023/08/12 05:01:51;;;;;;;1.73;0.85;;;;;;;21.89;57.65;100126.84;5008038;28;20046;-87
2023/08/12 05:04:17;;;;;;;8.57;1.70;;;;;;;21.79;57.71;100114.88;5010194;28;20092;-81
2023/08/12 05:06:43;;;;;;;2.30;1.17;;;;;;;21.82;57.46;100117.38;5010145;28;20025;-81
2023/08/12 05:09:08;;;;;;;2.65;1.65;;;;;;;22.06;56.92;100138.44;5009718;28;20097;-81
2023/08/12 05:11:34;;;;;;;1.33;0.77;;;;;;;21.93;57.03;100122.16;5009698;28;20038;-82
2023/08/12 05:13:59;;;;;;;2.55;1.85;;;;;;;22.02;57.37;100127.00;5008491;28;20511;-82
2023/08/12 05:16:25;;;;;;;2.72;0.90;;;;;;;22.12;57.60;100152.44;5009630;28;20040;-83
2023/08/12 05:18:51;;;;;;;1.33;1.15;;;;;;;21.98;57.21;100117.38;5009565;28;20033;-83
2023/08/12 05:21:18;;;;;;;1.27;0.90;;;;;;;22.14;57.94;100147.81;5009552;28;20041;-83
2023/08/12 05:23:43;;;;;;;1.25;1.05;;;;;;;22.10;57.64;100138.19;5009528;28;20026;-86
2023/08/12 05:26:09;;;;;;;1.08;0.98;;;;;;;22.06;57.67;100122.31;5010196;28;20168;-86
2023/08/12 05:28:34;;;;;;;1.05;0.65;;;;;;;22.15;58.01;100154.06;5002004;28;20029;-87
2023/08/12 05:31:00;;;;;;;1.30;0.70;;;;;;;22.27;57.37;100157.88;4989598;28;20038;-87
2023/08/12 05:33:25;;;;;;;10.10;1.88;;;;;;;22.16;57.32;100126.25;4998385;28;20100;-89
2023/08/12 05:35:51;;;;;;;1.30;1.20;;;;;;;22.08;56.02;100085.53;4992666;28;20556;-87
2023/08/12 05:38:16;;;;;;;1.25;0.80;;;;;;;22.32;55.80;100115.50;4989870;28;20117;-85
2023/08/12 05:40:42;;;;;;;7.10;1.63;;;;;;;22.61;55.79;100147.91;4990895;28;20504;-85
2023/08/12 05:43:08;;;;;;;2.08;1.05;;;;;;;22.57;55.83;100120.38;4989617;28;20034;-84
2023/08/12 05:45:34;;;;;;;1.90;1.10;;;;;;;22.78;54.67;100117.34;4997281;28;20415;-85
2023/08/12 05:48:00;;;;;;;3.78;1.92;;;;;;;22.80;54.89;100119.00;5013060;28;20029;-93
2023/08/12 05:50:26;;;;;;;1.90;0.73;;;;;;;23.02;54.16;100134.72;5011461;28;20120;-85
2023/08/12 05:52:51;;;;;;;3.25;0.73;;;;;;;22.99;54.05;100110.69;5014049;28;20564;-84
2023/08/12 05:55:17;;;;;;;2.08;0.93;;;;;;;22.93;53.99;100103.00;5013694;28;20030;-89
2023/08/12 05:57:42;;;;;;;0.85;0.65;;;;;;;22.92;54.02;100114.72;5012910;28;20037;-85
2023/08/12 06:00:08;;;;;;;0.50;0.50;;;;;;;23.22;53.42;100117.41;5012352;28;20030;-85
2023/08/12 06:02:35;;;;;;;2.67;1.85;;;;;;;23.28;54.07;100088.38;5010364;28;20558;-94
2023/08/12 06:05:08;;;;;;;1.15;0.80;;;;;;;23.89;52.12;100126.78;5013700;28;20057;-93
2023/08/12 06:07:33;;;;;;;0.98;0.52;;;;;;;24.27;50.55;100115.38;5013733;28;20026;-92
2023/08/12 06:10:00;;;;;;;2.72;1.35;;;;;;;24.33;49.27;100100.59;5010184;28;20032;-89
2023/08/12 06:12:25;;;;;;;0.93;0.68;;;;;;;24.43;50.00;100110.69;4998518;28;20042;-92
2023/08/12 06:14:51;;;;;;;4.15;1.48;;;;;;;24.30;49.84;100101.69;5015118;28;20696;-90
2023/08/12 06:17:18;;;;;;;1.15;1.05;;;;;;;24.55;48.75;100121.66;4996452;28;20037;-89
2023/08/12 06:19:44;;;;;;;4.65;2.20;;;;;;;24.62;48.23;100106.78;5000251;28;20030;-91
2023/08/12 06:22:09;;;;;;;0.82;0.80;;;;;;;24.95;47.50;100129.78;5009987;28;20073;-92
2023/08/12 06:24:35;;;;;;;2.35;0.93;;;;;;;25.00;47.50;100098.78;4990478;28;20156;-87
2023/08/12 06:27:00;;;;;;;3.20;0.82;;;;;;;25.20;47.08;100110.91;4991579;28;20026;-86
2023/08/12 06:29:25;;;;;;;2.13;1.50;;;;;;;25.66;46.92;100116.78;4992184;28;20472;-91
2023/08/12 06:31:53;;;;;;;1.08;0.98;;;;;;;25.35;46.33;100071.22;4993986;28;20397;-94
2023/08/12 06:34:18;;;;;;;1.98;1.10;;;;;;;25.70;44.47;100072.34;5003249;28;20030;-94
2023/08/12 06:36:44;;;;;;;1.77;1.05;;;;;;;25.65;44.84;100115.06;5009348;28;20045;-92
2023/08/12 06:39:09;;;;;;;1.23;0.98;;;;;;;25.50;44.70;100092.69;5000936;28;20404;-93
2023/08/12 06:41:35;;;;;;;1.77;1.13;;;;;;;26.00;45.31;100122.50;5011758;28;20049;-91
2023/08/12 06:44:01;;;;;;;1.55;1.10;;;;;;;26.04;43.83;100102.34;5009194;28;20156;-92
2023/08/12 06:46:26;;;;;;;0.70;0.60;;;;;;;26.14;43.65;100113.38;5011568;28;20068;-89
2023/08/12 06:48:52;;;;;;;0.93;0.60;;;;;;;26.27;42.54;100098.84;5010294;28;20033;-90
2023/08/12 06:51:17;;;;;;;1.90;1.13;;;;;;;26.49;41.35;100085.53;5010678;28;20049;-90
2023/08/12 06:53:43;;;;;;;3.60;1.17;;;;;;;26.77;41.23;100111.38;5012591;28;20025;-84
2023/08/12 06:56:08;;;;;;;0.98;0.70;;;;;;;26.90;41.53;100108.63;5012258;28;20377;-84
2023/08/12 06:58:34;;;;;;;2.78;1.60;;;;;;;27.39;41.04;100102.13;5011108;28;20108;-86
2023/08/12 07:00:59;;;;;;;1.20;0.95;;;;;;;27.63;40.53;100079.47;5011207;28;20040;-84
2023/08/12 07:03:25;;;;;;;4.53;1.33;;;;;;;27.85;39.54;100109.25;5012045;28;20419;-89
2023/08/12 07:05:51;;;;;;;1.23;0.95;;;;;;;27.96;38.74;100084.03;5010538;28;20056;-89
2023/08/12 07:08:17;;;;;;;1.45;1.02;;;;;;;28.14;38.15;100078.91;5003359;28;20187;-87
2023/08/12 07:10:42;;;;;;;1.33;0.60;;;;;;;28.33;38.14;100091.84;5000540;28;20476;-92
2023/08/12 07:13:08;;;;;;;0.98;0.77;;;;;;;28.43;37.28;100063.94;5008761;28;20033;-88
2023/08/12 07:15:33;;;;;;;0.65;0.55;;;;;;;28.42;36.30;100054.06;5011842;28;20030;-88
2023/08/12 07:17:59;;;;;;;0.63;0.60;;;;;;;28.21;36.56;100072.00;5011979;28;20029;-89
2023/08/12 07:20:25;;;;;;;0.80;0.80;;;;;;;28.28;36.29;100104.06;5002508;28;20030;-87
2023/08/12 07:22:50;;;;;;;1.77;1.17;;;;;;;28.13;36.33;100060.06;5010026;28;20058;-89
2023/08/12 07:25:16;;;;;;;1.17;0.75;;;;;;;28.23;38.10;100085.44;5005388;28;20042;-87
2023/08/12 07:27:42;;;;;;;0.70;0.68;;;;;;;28.89;36.94;100090.78;5004851;28;20025;-94
2023/08/12 07:30:08;;;;;;;0.63;0.52;;;;;;;29.01;35.23;100090.69;5007827;28;20089;-91
2023/08/12 07:32:34;;;;;;;2.95;0.88;;;;;;;28.78;35.79;100068.25;5010299;28;20094;-89
2023/08/12 07:34:59;;;;;;;0.73;0.73;;;;;;;28.62;35.22;100079.56;4997384;28;20053;-88
2023/08/12 07:37:25;;;;;;;0.40;0.40;;;;;;;28.80;35.22;100072.56;4996311;28;20030;-90
2023/08/12 07:39:51;;;;;;;0.95;0.57;;;;;;;28.82;35.08;100042.56;5001417;28;20034;-91
2023/08/12 07:42:17;;;;;;;1.25;0.88;;;;;;;28.96;34.35;100057.66;4998632;28;20037;-92
2023/08/12 07:44:43;;;;;;;1.45;1.00;;;;;;;28.96;35.45;100063.09;5003000;28;20942;-90
2023/08/12 07:47:09;;;;;;;1.02;0.50;;;;;;;28.99;36.21;100082.69;5020175;28;20049;-92
2023/08/12 07:49:34;;;;;;;1.17;0.60;;;;;;;28.80;34.91;100082.56;4997453;28;20031;-84
2023/08/12 07:52:00;;;;;;;1.02;0.90;;;;;;;29.06;35.96;100059.44;4999904;28;20026;-87
2023/08/12 07:54:26;;;;;;;1.65;0.95;;;;;;;29.41;33.14;100077.28;5009527;28;20042;-88
2023/08/12 07:56:53;;;;;;;0.45;0.30;;;;;;;29.54;33.08;100060.72;5009659;28;20033;-87
2023/08/12 07:59:19;;;;;;;0.43;0.40;;;;;;;29.25;32.15;100056.00;5010695;28;20480;-86
2023/08/12 08:01:45;;;;;;;2.33;1.45;;;;;;;29.45;33.45;100046.09;5010798;28;20068;-85
2023/08/12 08:04:10;;;;;;;0.60;0.40;;;;;;;29.69;31.66;100046.75;5009004;28;20057;-89
2023/08/12 08:06:36;;;;;;;0.43;0.43;;;;;;;29.86;31.37;100029.84;5010520;28;20033;-83
2023/08/12 08:09:03;;;;;;;2.10;1.05;;;;;;;30.25;33.16;100067.13;5009652;28;20030;-80
2023/08/12 08:11:30;;;;;;;1.17;0.88;;;;;;;30.74;32.58;100062.59;5004145;28;20027;-81
2023/08/12 08:13:58;;;;;;;1.48;0.82;;;;;;;31.08;31.43;100034.03;4990690;28;20037;-82
2023/08/12 08:16:23;;;;;;;0.60;0.60;;;;;;;31.19;30.58;100047.50;5001797;28;20038;-86
2023/08/12 08:18:49;;;;;;;1.52;0.55;;;;;;;31.54;31.50;100054.13;4990631;28;20030;-82
2023/08/12 08:21:14;;;;;;;0.85;0.77;;;;;;;31.28;29.24;100023.91;5002129;28;20531;-86
2023/08/12 08:23:42;;;;;;;1.73;0.70;;;;;;;31.52;30.00;100047.94;4994435;28;20566;-83
2023/08/12 08:26:08;;;;;;;1.00;0.57;;;;;;;31.87;28.40;100041.75;4993720;28;20054;-82
2023/08/12 08:28:34;;;;;;;1.27;0.65;;;;;;;31.87;28.70;100046.34;5000501;28;20038;-87
2023/08/12 08:31:00;;;;;;;1.55;1.00;;;;;;;31.98;28.52;100032.50;4990804;28;20463;-85
2023/08/12 08:33:26;;;;;;;1.48;0.63;;;;;;;32.23;29.26;100036.38;5000293;28;20049;-84
2023/08/12 08:35:52;;;;;;;1.25;0.98;;;;;;;32.18;30.26;100057.81;4990966;28;20532;-85
2023/08/12 08:38:17;;;;;;;1.00;0.75;;;;;;;32.29;28.36;100048.56;5005949;28;20029;-86
2023/08/12 08:40:43;;;;;;;0.95;0.75;;;;;;;32.21;27.44;100034.81;5008573;28;20040;-86
2023/08/12 08:43:08;;;;;;;0.50;0.40;;;;;;;32.12;27.96;100044.78;4989965;28;20046;-85
2023/08/12 08:45:35;;;;;;;0.45;0.30;;;;;;;32.20;29.66;100023.03;4990555;28;20461;-88
2023/08/12 08:48:02;;;;;;;0.60;0.40;;;;;;;32.84;27.93;100042.94;4992950;28;20036;-86
2023/08/12 08:50:30;;;;;;;1.90;0.75;;;;;;;33.10;28.38;100038.47;5007754;28;20103;-82
2023/08/12 08:52:58;;;;;;;0.95;0.52;;;;;;;33.15;27.34;100022.44;5008363;28;20053;-82
2023/08/12 08:55:24;;;;;;;1.98;1.10;;;;;;;33.25;26.65;100019.66;5010556;28;20045;-87
2023/08/12 08:57:50;;;;;;;2.33;1.50;;;;;;;32.85;27.02;100030.13;5009201;28;20080;-85
2023/08/12 09:00:16;;;;;;;1.05;0.80;;;;;;;33.02;27.54;100047.47;5004448;28;20034;-89
2023/08/12 09:02:46;;;;;;;0.88;0.57;;;;;;;32.53;27.31;100027.94;4992411;28;20034;-88
2023/08/12 09:05:14;;;;;;;1.23;0.85;;;;;;;32.58;26.88;99976.44;4989710;28;20042;-88
2023/08/12 09:07:42;;;;;;;0.75;0.47;;;;;;;32.31;28.81;99970.09;5008356;28;21241;-85
2023/08/12 09:10:10;;;;;;;0.93;0.65;;;;;;;32.97;26.77;100017.06;5007766;28;20084;-95
2023/08/12 09:12:36;;;;;;;2.00;1.20;;;;;;;32.58;26.36;100010.09;5009055;28;20048;-90
2023/08/12 09:15:02;;;;;;;1.08;0.80;;;;;;;31.95;26.98;99989.16;5007669;28;20483;-86
2023/08/12 09:17:29;;;;;;;0.25;0.20;;;;;;;32.12;26.79;100014.78;5009847;28;20033;-94
2023/08/12 09:19:56;;;;;;;0.30;0.30;;;;;;;32.16;27.16;99983.44;5005451;28;20107;-96
2023/08/12 09:22:25;;;;;;;0.90;0.65;;;;;;;32.26;27.56;99986.09;5009516;28;20113;-87
2023/08/12 09:24:56;;;;;;;0.50;0.43;;;;;;;32.58;27.10;99990.97;4993317;28;20125;-90
2023/08/12 09:27:21;;;;;;;3.03;1.15;;;;;;;32.48;27.26;99973.81;5008022;28;20031;-90
2023/08/12 09:29:47;;;;;;;3.20;0.85;;;;;;;32.43;26.66;99965.25;4993652;28;20113;-92
2023/08/12 09:32:17;;;;;;;0.75;0.30;;;;;;;32.85;27.22;99980.94;4993507;28;20030;-93
2023/08/12 09:34:48;;;;;;;1.75;0.95;;;;;;;32.99;27.01;99976.78;5007408;28;20030;-87
2023/08/12 09:37:14;;;;;;;0.38;0.38;;;;;;;33.05;26.43;99992.50;5000997;28;20026;-91
2023/08/12 09:39:40;;;;;;;1.52;0.80;;;;;;;32.97;27.22;99968.75;5012014;28;20069;-92
2023/08/12 09:42:05;;;;;;;0.75;0.57;;;;;;;32.29;26.44;99951.16;5014575;28;20072;-94
2023/08/12 09:44:35;;;;;;;0.50;0.38;;;;;;;32.48;28.89;99976.56;5011155;28;20756;-89
2023/08/12 09:47:00;;;;;;;1.05;0.82;;;;;;;32.54;28.04;99943.16;5013475;28;20026;-91
2023/08/12 09:50:00;;;;;;;1.05;0.50;;;;;;;33.09;27.61;99965.72;5012248;28;20038;-90
2023/08/12 09:52:27;;;;;;;1.02;0.77;;;;;;;32.86;27.29;99929.91;4970622;28;20047;-89
2023/08/12 09:54:56;;;;;;;0.80;0.60;;;;;;;32.96;26.30;99926.03;4954386;28;20218;-90
2023/08/12 09:57:25;;;;;;;0.65;0.63;;;;;;;33.17;26.14;99957.59;4972402;28;20046;-88
2023/08/12 09:59:53;;;;;;;2.28;0.95;;;;;;;32.93;25.78;99969.22;4938581;28;20066;-92
2023/08/12 10:02:20;;;;;;;0.32;0.32;;;;;;;33.00;25.47;99956.63;4953713;28;20053;-91
2023/08/12 10:04:46;;;;;;;0.73;0.30;;;;;;;32.83;25.90;99929.22;4954144;28;20026;-93
2023/08/12 10:07:14;;;;;;;0.80;0.43;;;;;;;32.91;25.84;99920.22;4954419;28;20031;-89
2023/08/12 10:09:41;;;;;;;0.68;0.38;;;;;;;32.77;27.06;99939.94;4971062;28;20047;-93
2023/08/12 10:12:07;;;;;;;0.40;0.35;;;;;;;32.27;26.52;99922.31;4954712;28;20034;-87
2023/08/12 10:14:33;;;;;;;0.88;0.55;;;;;;;32.42;26.20;99937.09;4971468;28;20042;-89
2023/08/12 10:16:59;;;;;;;1.00;0.65;;;;;;;32.58;29.48;99914.53;4971400;28;20045;-90
2023/08/12 10:19:26;;;;;;;2.55;0.45;;;;;;;33.22;25.01;99936.13;4954424;28;20081;-88
2023/08/12 10:21:59;;;;;;;0.85;0.63;;;;;;;33.23;26.31;99942.41;4971432;28;20073;-86
2023/08/12 10:24:36;;;;;;;1.23;1.13;;;;;;;33.09;25.44;99913.81;4972362;28;20031;-91
2023/08/12 10:27:02;;;;;;;8.60;6.43;;;;;;;33.18;27.74;99927.41;4971016;28;20053;-93
2023/08/12 10:29:30;;;;;;;29.17;17.42;;;;;;;33.30;25.66;99910.69;5003977;28;20046;-96
2023/08/12 10:31:56;;;;;;;67.03;42.35;;;;;;;33.07;25.60;99919.44;5010119;28;20423;-90
2023/08/12 10:34:23;;;;;;;19.23;9.10;;;;;;;32.47;25.91;99932.03;5014625;28;20030;-95
2023/08/12 10:36:54;;;;;;;14.35;12.95;;;;;;;32.23;27.41;99919.03;5012319;28;20025;-91
2023/08/12 10:39:28;;;;;;;276.98;248.05;;;;;;;32.63;26.80;99916.78;5012148;28;20021;-88
2023/08/12 10:41:58;;;;;;;23.38;15.93;;;;;;;32.51;25.05;99934.44;5011800;28;20121;-88
2023/08/12 10:44:54;;;;;;;3.05;1.73;;;;;;;32.37;25.26;99920.34;5012040;28;20479;-89
2023/08/12 10:47:19;;;;;;;39.42;21.27;;;;;;;32.53;26.52;99895.03;5008487;28;20038;-87
2023/08/12 10:49:53;;;;;;;6.53;3.95;;;;;;;32.64;25.89;99900.28;5011820;28;20510;-91
2023/08/12 10:52:35;;;;;;;236.02;125.65;;;;;;;32.64;25.77;99908.47;5012266;28;20038;-91
2023/08/12 10:55:36;;;;;;;14.85;9.02;;;;;;;32.81;26.14;99908.53;5011046;28;20065;-87
2023/08/12 10:58:27;;;;;;;108.70;78.00;;;;;;;32.36;26.65;99893.22;4971615;28;20042;-92
2023/08/12 11:00:55;;;;;;;54.88;49.03;;;;;;;32.69;26.70;99891.59;4955203;28;20564;-90
2023/08/12 11:03:21;;;;;;;184.93;99.97;;;;;;;32.33;26.42;99882.63;4955858;28;20461;-90
2023/08/12 11:05:48;;;;;;;41.15;36.88;;;;;;;32.62;25.86;99910.44;4955442;28;20038;-92
2023/08/12 11:08:14;;;;;;;2.13;1.30;;;;;;;32.26;26.73;99822.38;4971524;28;20095;-95
2023/08/12 11:10:43;;;;;;;0.90;0.68;;;;;;;32.36;25.40;99852.28;4959609;28;20393;-94
2023/08/12 11:13:09;;;;;;;0.40;0.40;;;;;;;32.70;28.45;99871.44;4973813;28;20035;-94
2023/08/12 11:15:57;;;;;;;0.73;0.43;;;;;;;32.53;25.67;99862.28;4957566;28;20050;-94
2023/08/12 11:18:23;;;;;;;0.70;0.63;;;;;;;32.11;26.72;99906.66;4972356;28;20121;-89
2023/08/12 11:20:49;;;;;;;1.67;1.30;;;;;;;32.06;27.68;99848.97;4968114;28;20129;-91
2023/08/12 11:23:18;;;;;;;6.53;1.70;;;;;;;32.05;26.79;99826.25;4969247;28;20090;-92
2023/08/12 11:25:44;;;;;;;1.38;0.40;;;;;;;32.38;26.92;99851.09;4968641;28;20078;-91